sensor_id;sensor_type;location;lat;lon;timestamp;P1;durP1;ratioP1;P2;durP2;ratioP2
11052;SDS011;55230;42.602;23.470;2024-01-11T00:02:04;18.15;;;9.88;;
11052;SDS011;55230;42.602;23.470;2024-01-11T00:04:30;22.38;;;11.02;;
11052;SDS011;55230;42.602;23.470;2024-01-11T00:06:55;22.02;;;10.52;;
11052;SDS011;55230;42.602;23.470;2024-01-11T00:09:20;18.67;;;10.70;;
11052;SDS011;55230;42.602;23.470;2024-01-11T00:11:46;33.20;;;13.38;;
11052;SDS011;55230;42.602;23.470;2024-01-11T00:14:11;26.83;;;16.05;;
11052;SDS011;55230;42.602;23.470;2024-01-11T00:16:36;48.13;;;18.15;;
11052;SDS011;55230;42.602;23.470;2024-01-11T00:19:02;38.83;;;19.85;;
11052;SDS011;55230;42.602;23.470;2024-01-11T00:21:27;53.03;;;22.60;;
11052;SDS011;55230;42.602;23.470;2024-01-11T00:23:53;39.92;;;18.98;;
11052;SDS011;55230;42.602;23.470;2024-01-11T00:26:18;47.47;;;19.63;;
11052;SDS011;55230;42.602;23.470;2024-01-11T00:28:44;42.30;;;16.85;;
11052;SDS011;55230;42.602;23.470;2024-01-11T00:31:10;25.25;;;13.95;;
11052;SDS011;55230;42.602;23.470;2024-01-11T00:33:35;32.75;;;13.68;;
11052;SDS011;55230;42.602;23.470;2024-01-11T00:36:01;27.25;;;11.68;;
11052;SDS011;55230;42.602;23.470;2024-01-11T00:38:26;40.10;;;18.20;;
11052;SDS011;55230;42.602;23.470;2024-01-11T00:40:51;29.30;;;16.00;;
11052;SDS011;55230;42.602;23.470;2024-01-11T00:43:17;29.67;;;15.25;;
11052;SDS011;55230;42.602;23.470;2024-01-11T00:45:43;23.40;;;12.23;;
11052;SDS011;55230;42.602;23.470;2024-01-11T00:48:10;17.13;;;10.52;;
11052;SDS011;55230;42.602;23.470;2024-01-11T00:50:36;43.17;;;20.05;;
11052;SDS011;55230;42.602;23.470;2024-01-11T00:53:02;38.55;;;16.65;;
11052;SDS011;55230;42.602;23.470;2024-01-11T00:55:28;28.65;;;14.88;;
11052;SDS011;55230;42.602;23.470;2024-01-11T00:57:53;38.25;;;15.27;;
11052;SDS011;55230;42.602;23.470;2024-01-11T01:00:19;54.17;;;21.17;;
11052;SDS011;55230;42.602;23.470;2024-01-11T01:02:44;39.83;;;18.65;;
11052;SDS011;55230;42.602;23.470;2024-01-11T01:05:10;25.30;;;15.18;;
11052;SDS011;55230;42.602;23.470;2024-01-11T01:07:35;17.30;;;11.07;;
11052;SDS011;55230;42.602;23.470;2024-01-11T01:10:01;13.43;;;10.43;;
11052;SDS011;55230;42.602;23.470;2024-01-11T01:12:27;16.45;;;9.50;;
11052;SDS011;55230;42.602;23.470;2024-01-11T01:14:53;22.10;;;10.65;;
11052;SDS011;55230;42.602;23.470;2024-01-11T01:17:20;17.35;;;11.40;;
11052;SDS011;55230;42.602;23.470;2024-01-11T01:19:47;37.08;;;18.27;;
11052;SDS011;55230;42.602;23.470;2024-01-11T01:22:12;36.10;;;15.15;;
11052;SDS011;55230;42.602;23.470;2024-01-11T01:24:37;21.15;;;12.90;;
11052;SDS011;55230;42.602;23.470;2024-01-11T01:27:03;16.55;;;9.05;;
11052;SDS011;55230;42.602;23.470;2024-01-11T01:57:28;14.95;;;9.25;;
11052;SDS011;55230;42.602;23.470;2024-01-11T01:59:55;10.05;;;5.93;;
11052;SDS011;55230;42.602;23.470;2024-01-11T02:02:21;13.18;;;6.90;;
11052;SDS011;55230;42.602;23.470;2024-01-11T02:04:47;12.23;;;7.20;;
11052;SDS011;55230;42.602;23.470;2024-01-11T02:07:13;9.85;;;6.88;;
11052;SDS011;55230;42.602;23.470;2024-01-11T02:09:39;12.60;;;9.40;;
11052;SDS011;55230;42.602;23.470;2024-01-11T02:12:05;17.67;;;9.40;;
11052;SDS011;55230;42.602;23.470;2024-01-11T02:14:31;39.55;;;16.20;;
11052;SDS011;55230;42.602;23.470;2024-01-11T02:16:57;41.17;;;18.15;;
11052;SDS011;55230;42.602;23.470;2024-01-11T02:19:22;21.98;;;12.25;;
11052;SDS011;55230;42.602;23.470;2024-01-11T02:21:48;26.58;;;13.82;;
11052;SDS011;55230;42.602;23.470;2024-01-11T02:24:17;19.10;;;9.00;;
11052;SDS011;55230;42.602;23.470;2024-01-11T02:26:58;12.45;;;8.40;;
11052;SDS011;55230;42.602;23.470;2024-01-11T02:29:25;15.40;;;8.55;;
11052;SDS011;55230;42.602;23.470;2024-01-11T02:31:50;10.45;;;7.07;;
11052;SDS011;55230;42.602;23.470;2024-01-11T02:34:16;28.85;;;13.93;;
11052;SDS011;55230;42.602;23.470;2024-01-11T02:36:42;20.63;;;11.70;;
11052;SDS011;55230;42.602;23.470;2024-01-11T02:39:07;12.82;;;8.85;;
11052;SDS011;55230;42.602;23.470;2024-01-11T02:41:33;13.50;;;8.88;;
11052;SDS011;55230;42.602;23.470;2024-01-11T02:44:00;14.18;;;10.40;;
11052;SDS011;55230;42.602;23.470;2024-01-11T02:46:26;22.38;;;12.00;;
11052;SDS011;55230;42.602;23.470;2024-01-11T02:48:51;22.92;;;9.32;;
11052;SDS011;55230;42.602;23.470;2024-01-11T02:51:17;31.40;;;15.32;;
11052;SDS011;55230;42.602;23.470;2024-01-11T02:53:43;31.98;;;16.13;;
11052;SDS011;55230;42.602;23.470;2024-01-11T02:56:08;30.35;;;16.30;;
11052;SDS011;55230;42.602;23.470;2024-01-11T02:58:33;30.10;;;15.20;;
11052;SDS011;55230;42.602;23.470;2024-01-11T03:00:59;41.22;;;22.27;;
11052;SDS011;55230;42.602;23.470;2024-01-11T03:03:24;38.38;;;20.85;;
11052;SDS011;55230;42.602;23.470;2024-01-11T03:05:50;25.35;;;13.27;;
11052;SDS011;55230;42.602;23.470;2024-01-11T03:08:15;17.42;;;11.68;;
11052;SDS011;55230;42.602;23.470;2024-01-11T03:10:40;10.15;;;7.78;;
11052;SDS011;55230;42.602;23.470;2024-01-11T03:13:06;13.75;;;8.75;;
11052;SDS011;55230;42.602;23.470;2024-01-11T03:36:12;9.43;;;5.93;;
11052;SDS011;55230;42.602;23.470;2024-01-11T03:38:37;11.35;;;7.47;;
11052;SDS011;55230;42.602;23.470;2024-01-11T03:41:09;8.75;;;7.53;;
11052;SDS011;55230;42.602;23.470;2024-01-11T03:43:35;14.90;;;7.22;;
11052;SDS011;55230;42.602;23.470;2024-01-11T03:46:01;16.02;;;9.88;;
11052;SDS011;55230;42.602;23.470;2024-01-11T03:48:27;29.55;;;10.98;;
11052;SDS011;55230;42.602;23.470;2024-01-11T03:50:52;24.83;;;11.00;;
11052;SDS011;55230;42.602;23.470;2024-01-11T03:53:17;19.15;;;12.05;;
11052;SDS011;55230;42.602;23.470;2024-01-11T03:55:43;18.35;;;11.32;;
11052;SDS011;55230;42.602;23.470;2024-01-11T03:58:08;17.60;;;10.02;;
11052;SDS011;55230;42.602;23.470;2024-01-11T04:00:33;16.55;;;11.43;;
11052;SDS011;55230;42.602;23.470;2024-01-11T04:02:59;16.02;;;11.25;;
11052;SDS011;55230;42.602;23.470;2024-01-11T04:05:24;12.77;;;7.85;;
11052;SDS011;55230;42.602;23.470;2024-01-11T04:07:50;14.05;;;9.10;;
11052;SDS011;55230;42.602;23.470;2024-01-11T04:10:17;13.52;;;8.23;;
11052;SDS011;55230;42.602;23.470;2024-01-11T04:12:42;13.13;;;8.60;;
11052;SDS011;55230;42.602;23.470;2024-01-11T04:15:08;20.13;;;9.05;;
11052;SDS011;55230;42.602;23.470;2024-01-11T04:17:34;17.63;;;9.40;;
11052;SDS011;55230;42.602;23.470;2024-01-11T04:19:59;12.73;;;9.05;;
11052;SDS011;55230;42.602;23.470;2024-01-11T04:22:25;18.98;;;11.85;;
11052;SDS011;55230;42.602;23.470;2024-01-11T04:24:50;39.78;;;14.02;;
11052;SDS011;55230;42.602;23.470;2024-01-11T04:27:15;47.05;;;26.48;;
11052;SDS011;55230;42.602;23.470;2024-01-11T04:29:41;21.70;;;16.08;;
11052;SDS011;55230;42.602;23.470;2024-01-11T04:32:06;11.25;;;7.50;;
11052;SDS011;55230;42.602;23.470;2024-01-11T04:34:32;12.38;;;7.75;;
11052;SDS011;55230;42.602;23.470;2024-01-11T04:36:57;13.35;;;8.85;;
11052;SDS011;55230;42.602;23.470;2024-01-11T04:41:48;7.67;;;5.63;;
11052;SDS011;55230;42.602;23.470;2024-01-11T04:44:13;9.13;;;6.80;;
11052;SDS011;55230;42.602;23.470;2024-01-11T04:46:38;7.13;;;4.78;;
11052;SDS011;55230;42.602;23.470;2024-01-11T04:51:29;5.07;;;4.73;;
11052;SDS011;55230;42.602;23.470;2024-01-11T04:53:54;13.93;;;7.68;;
11052;SDS011;55230;42.602;23.470;2024-01-11T04:56:20;11.40;;;7.05;;
11052;SDS011;55230;42.602;23.470;2024-01-11T04:58:45;13.00;;;7.35;;
11052;SDS011;55230;42.602;23.470;2024-01-11T05:01:14;13.50;;;8.18;;
11052;SDS011;55230;42.602;23.470;2024-01-11T05:03:42;13.27;;;8.20;;
11052;SDS011;55230;42.602;23.470;2024-01-11T05:06:20;14.20;;;10.38;;
11052;SDS011;55230;42.602;23.470;2024-01-11T05:08:47;12.43;;;8.25;;
11052;SDS011;55230;42.602;23.470;2024-01-11T05:11:17;10.75;;;8.10;;
11052;SDS011;55230;42.602;23.470;2024-01-11T05:13:47;62.38;;;24.95;;
11052;SDS011;55230;42.602;23.470;2024-01-11T05:16:20;35.47;;;21.17;;
11052;SDS011;55230;42.602;23.470;2024-01-11T05:18:47;28.05;;;12.68;;
11052;SDS011;55230;42.602;23.470;2024-01-11T05:21:13;27.15;;;13.30;;
11052;SDS011;55230;42.602;23.470;2024-01-11T05:26:05;15.23;;;8.35;;
11052;SDS011;55230;42.602;23.470;2024-01-11T05:28:30;16.63;;;10.32;;
11052;SDS011;55230;42.602;23.470;2024-01-11T05:30:56;13.25;;;8.63;;
11052;SDS011;55230;42.602;23.470;2024-01-11T05:35:46;13.70;;;9.37;;
11052;SDS011;55230;42.602;23.470;2024-01-11T06:01:23;9.00;;;8.02;;
11052;SDS011;55230;42.602;23.470;2024-01-11T06:14:58;16.17;;;12.63;;
11052;SDS011;55230;42.602;23.470;2024-01-11T06:20:33;19.10;;;11.40;;
11052;SDS011;55230;42.602;23.470;2024-01-11T06:26:00;22.48;;;11.85;;
11052;SDS011;55230;42.602;23.470;2024-01-11T06:28:26;45.63;;;16.08;;
11052;SDS011;55230;42.602;23.470;2024-01-11T06:30:51;39.70;;;18.85;;
11052;SDS011;55230;42.602;23.470;2024-01-11T06:33:16;34.22;;;15.68;;
11052;SDS011;55230;42.602;23.470;2024-01-11T06:35:42;23.13;;;13.35;;
11052;SDS011;55230;42.602;23.470;2024-01-11T06:38:07;23.40;;;10.93;;
11052;SDS011;55230;42.602;23.470;2024-01-11T06:40:33;15.63;;;9.88;;
11052;SDS011;55230;42.602;23.470;2024-01-11T06:42:58;14.30;;;8.90;;
11052;SDS011;55230;42.602;23.470;2024-01-11T06:45:23;26.88;;;14.45;;
11052;SDS011;55230;42.602;23.470;2024-01-11T06:47:49;20.27;;;14.07;;
11052;SDS011;55230;42.602;23.470;2024-01-11T06:50:14;18.15;;;11.50;;
11052;SDS011;55230;42.602;23.470;2024-01-11T07:02:21;11.10;;;6.85;;
11052;SDS011;55230;42.602;23.470;2024-01-11T07:26:28;89.25;;;46.78;;
11052;SDS011;55230;42.602;23.470;2024-01-11T07:28:54;56.95;;;33.35;;
11052;SDS011;55230;42.602;23.470;2024-01-11T07:31:20;87.18;;;45.88;;
11052;SDS011;55230;42.602;23.470;2024-01-11T07:33:45;65.35;;;30.95;;
11052;SDS011;55230;42.602;23.470;2024-01-11T07:36:11;57.10;;;29.73;;
11052;SDS011;55230;42.602;23.470;2024-01-11T07:38:38;68.97;;;30.83;;
11052;SDS011;55230;42.602;23.470;2024-01-11T07:41:03;77.85;;;39.55;;
11052;SDS011;55230;42.602;23.470;2024-01-11T07:43:29;88.35;;;44.83;;
11052;SDS011;55230;42.602;23.470;2024-01-11T07:45:55;72.28;;;34.45;;
11052;SDS011;55230;42.602;23.470;2024-01-11T07:48:21;53.97;;;29.63;;
11052;SDS011;55230;42.602;23.470;2024-01-11T07:50:48;45.33;;;26.08;;
11052;SDS011;55230;42.602;23.470;2024-01-11T07:53:13;50.10;;;25.48;;
11052;SDS011;55230;42.602;23.470;2024-01-11T07:55:39;37.33;;;21.40;;
11052;SDS011;55230;42.602;23.470;2024-01-11T07:58:05;52.30;;;24.20;;
11052;SDS011;55230;42.602;23.470;2024-01-11T08:00:31;47.15;;;23.80;;
11052;SDS011;55230;42.602;23.470;2024-01-11T08:02:56;72.88;;;30.55;;
11052;SDS011;55230;42.602;23.470;2024-01-11T08:05:21;87.03;;;35.47;;
11052;SDS011;55230;42.602;23.470;2024-01-11T08:07:47;38.00;;;20.70;;
11052;SDS011;55230;42.602;23.470;2024-01-11T08:10:12;40.35;;;22.20;;
11052;SDS011;55230;42.602;23.470;2024-01-11T08:12:38;35.38;;;18.92;;
11052;SDS011;55230;42.602;23.470;2024-01-11T08:15:04;40.40;;;16.95;;
11052;SDS011;55230;42.602;23.470;2024-01-11T08:17:29;32.97;;;18.02;;
11052;SDS011;55230;42.602;23.470;2024-01-11T08:19:55;43.00;;;23.58;;
11052;SDS011;55230;42.602;23.470;2024-01-11T08:22:21;39.55;;;21.50;;
11052;SDS011;55230;42.602;23.470;2024-01-11T08:24:47;29.48;;;18.10;;
11052;SDS011;55230;42.602;23.470;2024-01-11T08:27:13;30.23;;;16.33;;
11052;SDS011;55230;42.602;23.470;2024-01-11T08:29:40;26.35;;;14.05;;
11052;SDS011;55230;42.602;23.470;2024-01-11T08:32:05;25.90;;;16.77;;
11052;SDS011;55230;42.602;23.470;2024-01-11T08:34:32;30.67;;;16.90;;
11052;SDS011;55230;42.602;23.470;2024-01-11T08:36:57;24.13;;;14.00;;
11052;SDS011;55230;42.602;23.470;2024-01-11T08:39:23;36.10;;;16.33;;
11052;SDS011;55230;42.602;23.470;2024-01-11T08:41:48;30.92;;;18.33;;
11052;SDS011;55230;42.602;23.470;2024-01-11T08:44:13;52.58;;;27.35;;
11052;SDS011;55230;42.602;23.470;2024-01-11T08:46:40;52.50;;;25.00;;
11052;SDS011;55230;42.602;23.470;2024-01-11T08:49:05;37.55;;;20.77;;
11052;SDS011;55230;42.602;23.470;2024-01-11T08:51:31;56.40;;;25.35;;
11052;SDS011;55230;42.602;23.470;2024-01-11T08:56:38;39.13;;;20.15;;
11052;SDS011;55230;42.602;23.470;2024-01-11T08:59:05;32.78;;;19.25;;
11052;SDS011;55230;42.602;23.470;2024-01-11T09:01:31;37.22;;;20.85;;
11052;SDS011;55230;42.602;23.470;2024-01-11T09:03:57;43.15;;;24.27;;
11052;SDS011;55230;42.602;23.470;2024-01-11T09:06:23;42.00;;;20.90;;
11052;SDS011;55230;42.602;23.470;2024-01-11T09:08:48;33.25;;;20.25;;
11052;SDS011;55230;42.602;23.470;2024-01-11T09:11:15;36.20;;;18.13;;
11052;SDS011;55230;42.602;23.470;2024-01-11T09:13:44;42.80;;;21.83;;
11052;SDS011;55230;42.602;23.470;2024-01-11T09:16:23;36.13;;;19.58;;
11052;SDS011;55230;42.602;23.470;2024-01-11T09:19:09;29.08;;;17.95;;
11052;SDS011;55230;42.602;23.470;2024-01-11T09:21:41;44.10;;;18.38;;
11052;SDS011;55230;42.602;23.470;2024-01-11T09:24:09;37.97;;;19.02;;
11052;SDS011;55230;42.602;23.470;2024-01-11T09:26:46;37.30;;;19.55;;
11052;SDS011;55230;42.602;23.470;2024-01-11T09:29:28;35.42;;;18.33;;
11052;SDS011;55230;42.602;23.470;2024-01-11T09:33:03;39.50;;;21.23;;
11052;SDS011;55230;42.602;23.470;2024-01-11T09:35:44;39.78;;;23.50;;
11052;SDS011;55230;42.602;23.470;2024-01-11T09:38:15;55.30;;;24.98;;
11052;SDS011;55230;42.602;23.470;2024-01-11T09:40:41;50.70;;;26.13;;
11052;SDS011;55230;42.602;23.470;2024-01-11T09:52:31;46.67;;;21.05;;
11052;SDS011;55230;42.602;23.470;2024-01-11T09:55:07;42.47;;;20.08;;
11052;SDS011;55230;42.602;23.470;2024-01-11T10:04:12;29.33;;;18.67;;
11052;SDS011;55230;42.602;23.470;2024-01-11T10:06:39;26.92;;;15.05;;
11052;SDS011;55230;42.602;23.470;2024-01-11T10:09:06;45.45;;;26.05;;
11052;SDS011;55230;42.602;23.470;2024-01-11T10:14:07;27.05;;;14.68;;
11052;SDS011;55230;42.602;23.470;2024-01-11T10:16:34;29.52;;;16.50;;
11052;SDS011;55230;42.602;23.470;2024-01-11T10:21:37;36.35;;;15.70;;
11052;SDS011;55230;42.602;23.470;2024-01-11T10:24:08;30.00;;;16.90;;
11052;SDS011;55230;42.602;23.470;2024-01-11T10:26:34;28.38;;;15.30;;
11052;SDS011;55230;42.602;23.470;2024-01-11T10:29:01;35.65;;;18.42;;
11052;SDS011;55230;42.602;23.470;2024-01-11T10:31:44;32.88;;;16.52;;
11052;SDS011;55230;42.602;23.470;2024-01-11T10:37:47;35.90;;;17.70;;
11052;SDS011;55230;42.602;23.470;2024-01-11T10:40:18;38.55;;;19.88;;
11052;SDS011;55230;42.602;23.470;2024-01-11T10:42:50;38.63;;;21.20;;
11052;SDS011;55230;42.602;23.470;2024-01-11T10:45:17;43.75;;;23.95;;
11052;SDS011;55230;42.602;23.470;2024-01-11T10:50:18;27.40;;;16.05;;
11052;SDS011;55230;42.602;23.470;2024-01-11T10:52:49;30.83;;;18.00;;
11052;SDS011;55230;42.602;23.470;2024-01-11T10:55:28;34.67;;;16.77;;
11052;SDS011;55230;42.602;23.470;2024-01-11T10:57:56;29.60;;;15.48;;
11052;SDS011;55230;42.602;23.470;2024-01-11T11:00:26;31.20;;;16.70;;
11052;SDS011;55230;42.602;23.470;2024-01-11T11:02:58;25.15;;;15.10;;
11052;SDS011;55230;42.602;23.470;2024-01-11T11:05:31;47.15;;;22.52;;
11052;SDS011;55230;42.602;23.470;2024-01-11T11:08:02;31.58;;;16.65;;
11052;SDS011;55230;42.602;23.470;2024-01-11T11:10:31;32.63;;;16.33;;
11052;SDS011;55230;42.602;23.470;2024-01-11T11:12:59;50.00;;;20.25;;
11052;SDS011;55230;42.602;23.470;2024-01-11T11:15:24;42.40;;;17.85;;
11052;SDS011;55230;42.602;23.470;2024-01-11T11:17:52;69.78;;;27.77;;
11052;SDS011;55230;42.602;23.470;2024-01-11T11:20:18;29.13;;;15.35;;
11052;SDS011;55230;42.602;23.470;2024-01-11T11:22:48;39.58;;;20.40;;
11052;SDS011;55230;42.602;23.470;2024-01-11T11:25:27;37.75;;;20.08;;
11052;SDS011;55230;42.602;23.470;2024-01-11T11:27:55;51.63;;;25.02;;
11052;SDS011;55230;42.602;23.470;2024-01-11T11:30:21;31.50;;;17.67;;
11052;SDS011;55230;42.602;23.470;2024-01-11T11:32:46;43.28;;;18.42;;
11052;SDS011;55230;42.602;23.470;2024-01-11T11:35:12;37.67;;;16.63;;
11052;SDS011;55230;42.602;23.470;2024-01-11T11:37:38;48.10;;;24.27;;
11052;SDS011;55230;42.602;23.470;2024-01-11T11:40:08;48.17;;;21.83;;
11052;SDS011;55230;42.602;23.470;2024-01-11T11:42:36;41.88;;;18.20;;
11052;SDS011;55230;42.602;23.470;2024-01-11T11:45:01;32.97;;;16.00;;
11052;SDS011;55230;42.602;23.470;2024-01-11T12:57:28;14.65;;;9.07;;
11052;SDS011;55230;42.602;23.470;2024-01-11T12:59:54;19.60;;;9.98;;
11052;SDS011;55230;42.602;23.470;2024-01-11T13:02:19;17.35;;;9.15;;
11052;SDS011;55230;42.602;23.470;2024-01-11T13:04:45;18.80;;;10.52;;
11052;SDS011;55230;42.602;23.470;2024-01-11T13:07:13;37.42;;;15.48;;
11052;SDS011;55230;42.602;23.470;2024-01-11T13:09:40;21.50;;;10.63;;
11052;SDS011;55230;42.602;23.470;2024-01-11T13:12:06;30.02;;;14.68;;
11052;SDS011;55230;42.602;23.470;2024-01-11T13:14:32;31.52;;;14.93;;
11052;SDS011;55230;42.602;23.470;2024-01-11T13:16:58;32.42;;;15.23;;
11052;SDS011;55230;42.602;23.470;2024-01-11T13:19:24;42.63;;;20.90;;
11052;SDS011;55230;42.602;23.470;2024-01-11T13:21:49;42.92;;;20.45;;
11052;SDS011;55230;42.602;23.470;2024-01-11T13:24:15;29.67;;;15.77;;
11052;SDS011;55230;42.602;23.470;2024-01-11T13:26:41;18.23;;;10.50;;
11052;SDS011;55230;42.602;23.470;2024-01-11T13:29:06;18.58;;;10.80;;
11052;SDS011;55230;42.602;23.470;2024-01-11T13:31:32;17.90;;;10.88;;
11052;SDS011;55230;42.602;23.470;2024-01-11T14:12:10;32.95;;;20.98;;
11052;SDS011;55230;42.602;23.470;2024-01-11T14:14:40;20.70;;;14.80;;
11052;SDS011;55230;42.602;23.470;2024-01-11T14:17:06;16.20;;;11.60;;
11052;SDS011;55230;42.602;23.470;2024-01-11T14:19:32;19.52;;;11.85;;
11052;SDS011;55230;42.602;23.470;2024-01-11T14:21:57;15.63;;;10.23;;
11052;SDS011;55230;42.602;23.470;2024-01-11T14:24:23;16.25;;;9.85;;
11052;SDS011;55230;42.602;23.470;2024-01-11T14:26:50;18.55;;;15.02;;
11052;SDS011;55230;42.602;23.470;2024-01-11T14:29:15;18.92;;;10.98;;
11052;SDS011;55230;42.602;23.470;2024-01-11T14:31:41;17.08;;;11.00;;
11052;SDS011;55230;42.602;23.470;2024-01-11T14:34:06;20.13;;;11.48;;
11052;SDS011;55230;42.602;23.470;2024-01-11T14:36:31;14.13;;;10.88;;
11052;SDS011;55230;42.602;23.470;2024-01-11T14:38:57;12.05;;;8.45;;
11052;SDS011;55230;42.602;23.470;2024-01-11T14:41:22;14.63;;;10.07;;
11052;SDS011;55230;42.602;23.470;2024-01-11T14:43:48;17.33;;;8.82;;
11052;SDS011;55230;42.602;23.470;2024-01-11T14:46:13;12.05;;;8.80;;
11052;SDS011;55230;42.602;23.470;2024-01-11T14:48:38;19.23;;;10.60;;
11052;SDS011;55230;42.602;23.470;2024-01-11T14:51:04;17.08;;;9.65;;
11052;SDS011;55230;42.602;23.470;2024-01-11T14:53:30;14.98;;;8.98;;
11052;SDS011;55230;42.602;23.470;2024-01-11T14:55:55;15.02;;;8.02;;
11052;SDS011;55230;42.602;23.470;2024-01-11T14:58:21;11.57;;;9.25;;
11052;SDS011;55230;42.602;23.470;2024-01-11T15:00:46;16.63;;;10.55;;
11052;SDS011;55230;42.602;23.470;2024-01-11T15:03:12;11.50;;;8.85;;
11052;SDS011;55230;42.602;23.470;2024-01-11T15:05:37;20.08;;;9.93;;
11052;SDS011;55230;42.602;23.470;2024-01-11T15:08:24;14.75;;;8.65;;
11052;SDS011;55230;42.602;23.470;2024-01-11T15:10:56;14.95;;;9.38;;
11052;SDS011;55230;42.602;23.470;2024-01-11T15:13:21;16.30;;;8.93;;
11052;SDS011;55230;42.602;23.470;2024-01-11T15:15:46;20.08;;;10.45;;
11052;SDS011;55230;42.602;23.470;2024-01-11T15:18:12;21.77;;;10.63;;
11052;SDS011;55230;42.602;23.470;2024-01-11T15:20:38;21.92;;;10.65;;
11052;SDS011;55230;42.602;23.470;2024-01-11T15:23:03;40.83;;;20.98;;
11052;SDS011;55230;42.602;23.470;2024-01-11T15:25:30;41.90;;;16.67;;
11052;SDS011;55230;42.602;23.470;2024-01-11T15:27:55;27.52;;;13.57;;
11052;SDS011;55230;42.602;23.470;2024-01-11T15:30:21;64.53;;;19.10;;
11052;SDS011;55230;42.602;23.470;2024-01-11T15:53:04;28.23;;;13.70;;
11052;SDS011;55230;42.602;23.470;2024-01-11T15:55:29;26.33;;;14.98;;
11052;SDS011;55230;42.602;23.470;2024-01-11T15:57:55;81.03;;;41.33;;
11052;SDS011;55230;42.602;23.470;2024-01-11T16:00:23;90.10;;;42.38;;
11052;SDS011;55230;42.602;23.470;2024-01-11T16:02:49;63.63;;;30.73;;
11052;SDS011;55230;42.602;23.470;2024-01-11T16:05:16;100.97;;;36.00;;
11052;SDS011;55230;42.602;23.470;2024-01-11T16:07:42;281.63;;;77.82;;
11052;SDS011;55230;42.602;23.470;2024-01-11T16:10:07;26.67;;;10.25;;
11052;SDS011;55230;42.602;23.470;2024-01-11T16:12:33;207.30;;;55.13;;
11052;SDS011;55230;42.602;23.470;2024-01-11T16:14:59;40.05;;;14.80;;
11052;SDS011;55230;42.602;23.470;2024-01-11T16:17:25;25.25;;;12.30;;
11052;SDS011;55230;42.602;23.470;2024-01-11T16:19:50;7.55;;;4.82;;
11052;SDS011;55230;42.602;23.470;2024-01-11T16:22:15;7.68;;;5.00;;
11052;SDS011;55230;42.602;23.470;2024-01-11T16:24:45;10.45;;;5.68;;
11052;SDS011;55230;42.602;23.470;2024-01-11T16:27:11;12.00;;;7.18;;
11052;SDS011;55230;42.602;23.470;2024-01-11T16:29:38;11.02;;;5.53;;
11052;SDS011;55230;42.602;23.470;2024-01-11T16:32:03;20.33;;;8.93;;
11052;SDS011;55230;42.602;23.470;2024-01-11T16:34:30;29.27;;;11.63;;
11052;SDS011;55230;42.602;23.470;2024-01-11T16:36:55;17.95;;;7.82;;
11052;SDS011;55230;42.602;23.470;2024-01-11T16:39:21;16.83;;;7.43;;
11052;SDS011;55230;42.602;23.470;2024-01-11T16:41:46;20.13;;;9.73;;
11052;SDS011;55230;42.602;23.470;2024-01-11T16:44:12;22.42;;;11.48;;
11052;SDS011;55230;42.602;23.470;2024-01-11T16:46:38;30.38;;;10.68;;
11052;SDS011;55230;42.602;23.470;2024-01-11T16:49:03;8.90;;;5.25;;
11052;SDS011;55230;42.602;23.470;2024-01-11T16:51:29;12.23;;;7.18;;
11052;SDS011;55230;42.602;23.470;2024-01-11T16:53:55;9.77;;;6.70;;
11052;SDS011;55230;42.602;23.470;2024-01-11T16:56:21;12.13;;;6.70;;
11052;SDS011;55230;42.602;23.470;2024-01-11T16:58:46;14.60;;;6.72;;
11052;SDS011;55230;42.602;23.470;2024-01-11T17:01:12;19.30;;;8.43;;
11052;SDS011;55230;42.602;23.470;2024-01-11T17:03:37;60.83;;;17.60;;
11052;SDS011;55230;42.602;23.470;2024-01-11T17:06:03;42.30;;;14.90;;
11052;SDS011;55230;42.602;23.470;2024-01-11T17:08:29;35.38;;;13.55;;
11052;SDS011;55230;42.602;23.470;2024-01-11T17:10:55;49.47;;;17.48;;
11052;SDS011;55230;42.602;23.470;2024-01-11T17:13:20;22.48;;;12.02;;
11052;SDS011;55230;42.602;23.470;2024-01-11T17:15:53;30.23;;;13.55;;
11052;SDS011;55230;42.602;23.470;2024-01-11T17:18:24;19.30;;;10.18;;
11052;SDS011;55230;42.602;23.470;2024-01-11T17:20:50;28.95;;;9.82;;
11052;SDS011;55230;42.602;23.470;2024-01-11T17:23:26;25.65;;;11.25;;
11052;SDS011;55230;42.602;23.470;2024-01-11T17:25:52;58.97;;;20.38;;
11052;SDS011;55230;42.602;23.470;2024-01-11T17:28:17;43.55;;;14.55;;
11052;SDS011;55230;42.602;23.470;2024-01-11T17:30:42;37.78;;;13.18;;
11052;SDS011;55230;42.602;23.470;2024-01-11T17:33:08;55.80;;;19.92;;
11052;SDS011;55230;42.602;23.470;2024-01-11T17:35:34;56.55;;;20.80;;
11052;SDS011;55230;42.602;23.470;2024-01-11T17:38:00;57.90;;;22.25;;
11052;SDS011;55230;42.602;23.470;2024-01-11T17:40:27;31.23;;;13.35;;
11052;SDS011;55230;42.602;23.470;2024-01-11T17:42:56;73.63;;;30.88;;
11052;SDS011;55230;42.602;23.470;2024-01-11T17:45:21;86.45;;;34.38;;
11052;SDS011;55230;42.602;23.470;2024-01-11T17:47:47;45.85;;;22.35;;
11052;SDS011;55230;42.602;23.470;2024-01-11T17:50:13;42.33;;;20.38;;
11052;SDS011;55230;42.602;23.470;2024-01-11T17:52:38;42.60;;;21.55;;
11052;SDS011;55230;42.602;23.470;2024-01-11T17:55:07;56.10;;;27.00;;
11052;SDS011;55230;42.602;23.470;2024-01-11T17:57:33;38.50;;;20.33;;
11052;SDS011;55230;42.602;23.470;2024-01-11T18:00:00;24.67;;;14.05;;
11052;SDS011;55230;42.602;23.470;2024-01-11T18:02:25;31.27;;;16.00;;
11052;SDS011;55230;42.602;23.470;2024-01-11T18:04:51;19.25;;;11.98;;
11052;SDS011;55230;42.602;23.470;2024-01-11T18:07:16;22.40;;;12.73;;
11052;SDS011;55230;42.602;23.470;2024-01-11T18:09:42;16.35;;;8.40;;
11052;SDS011;55230;42.602;23.470;2024-01-11T18:12:07;41.20;;;17.67;;
11052;SDS011;55230;42.602;23.470;2024-01-11T18:14:33;122.57;;;49.65;;
11052;SDS011;55230;42.602;23.470;2024-01-11T18:16:59;70.10;;;30.45;;
11052;SDS011;55230;42.602;23.470;2024-01-11T18:19:24;75.50;;;30.42;;
11052;SDS011;55230;42.602;23.470;2024-01-11T18:21:50;45.40;;;21.65;;
11052;SDS011;55230;42.602;23.470;2024-01-11T18:24:15;26.05;;;14.20;;
11052;SDS011;55230;42.602;23.470;2024-01-11T18:26:42;28.75;;;17.38;;
11052;SDS011;55230;42.602;23.470;2024-01-11T18:29:07;54.90;;;26.00;;
11052;SDS011;55230;42.602;23.470;2024-01-11T18:31:33;59.75;;;31.88;;
11052;SDS011;55230;42.602;23.470;2024-01-11T18:33:58;65.18;;;30.77;;
11052;SDS011;55230;42.602;23.470;2024-01-11T18:36:24;65.72;;;27.40;;
11052;SDS011;55230;42.602;23.470;2024-01-11T18:38:49;106.28;;;43.95;;
11052;SDS011;55230;42.602;23.470;2024-01-11T18:41:17;58.10;;;24.80;;
11052;SDS011;55230;42.602;23.470;2024-01-11T18:43:42;85.93;;;36.58;;
11052;SDS011;55230;42.602;23.470;2024-01-11T18:46:09;45.55;;;20.58;;
11052;SDS011;55230;42.602;23.470;2024-01-11T18:49:22;43.65;;;21.58;;
11052;SDS011;55230;42.602;23.470;2024-01-11T18:55:32;51.38;;;22.73;;
11052;SDS011;55230;42.602;23.470;2024-01-11T19:08:36;15.43;;;9.95;;
11052;SDS011;55230;42.602;23.470;2024-01-11T19:11:28;18.98;;;9.60;;
11052;SDS011;55230;42.602;23.470;2024-01-11T19:14:11;13.95;;;7.97;;
11052;SDS011;55230;42.602;23.470;2024-01-11T19:17:37;21.35;;;9.07;;